createdAt,value
2023-02-06T00:00:56.925Z,5.10
2023-02-06T00:03:24.720Z,4.90
2023-02-06T00:05:56.793Z,5.00
2023-02-06T00:08:24.881Z,4.90
2023-02-06T00:10:53.135Z,5.00
2023-02-06T00:13:21.137Z,4.90
2023-02-06T00:15:49.177Z,4.90
2023-02-06T00:18:18.351Z,4.90
2023-02-06T00:20:46.080Z,5.00
2023-02-06T00:23:13.784Z,5.10
2023-02-06T00:25:41.529Z,5.10
2023-02-06T00:28:09.377Z,5.10
2023-02-06T00:30:37.238Z,5.20
2023-02-06T00:33:05.182Z,5.30
2023-02-06T00:35:34.617Z,5.20
2023-02-06T00:38:02.533Z,5.10
2023-02-06T00:40:30.504Z,5.10
2023-02-06T00:42:58.225Z,5.20
2023-02-06T00:45:25.903Z,5.30
2023-02-06T00:47:53.578Z,5.30
2023-02-06T00:50:21.345Z,5.30
2023-02-06T00:52:50.744Z,5.20
2023-02-06T00:55:18.733Z,5.00
2023-02-06T00:57:46.478Z,5.00
2023-02-06T01:00:15.294Z,5.10
2023-02-06T01:02:43.053Z,5.00
2023-02-06T01:05:11.261Z,4.70
2023-02-06T01:07:39.872Z,4.70
2023-02-06T01:10:12.160Z,4.90
2023-02-06T01:12:39.870Z,4.80
2023-02-06T01:15:12.325Z,4.60
2023-02-06T01:17:41.220Z,4.80
2023-02-06T01:20:12.109Z,4.90
2023-02-06T01:22:39.907Z,4.90
2023-02-06T01:25:09.626Z,4.80
2023-02-06T01:27:38.585Z,4.90
2023-02-06T01:30:08.273Z,4.90
2023-02-06T01:32:38.049Z,4.80
2023-02-06T01:35:07.125Z,4.70
2023-02-06T01:37:35.641Z,4.80
2023-02-06T01:40:03.713Z,4.80
2023-02-06T01:42:35.288Z,4.90
2023-02-06T01:45:52.935Z,5.00
2023-02-06T01:48:26.382Z,5.10
2023-02-06T01:50:57.244Z,4.90
2023-02-06T01:53:25.797Z,4.80
2023-02-06T01:55:55.214Z,4.80
2023-02-06T01:58:30.592Z,4.90
2023-02-06T02:01:00.091Z,5.00
2023-02-06T02:03:29.496Z,5.10
2023-02-06T02:06:00.964Z,5.00
2023-02-06T02:08:33.753Z,4.80
2023-02-06T02:11:02.677Z,4.90
2023-02-06T02:13:32.132Z,5.30
2023-02-06T02:16:03.182Z,5.50
2023-02-06T02:18:58.025Z,5.60
2023-02-06T02:21:58.308Z,5.70
2023-02-06T02:24:41.692Z,5.80
2023-02-06T02:27:26.081Z,5.90
2023-02-06T02:30:37.618Z,5.90
2023-02-06T02:33:27.255Z,5.80
2023-02-06T02:36:03.445Z,5.30
2023-02-06T02:38:44.680Z,5.20
2023-02-06T02:41:19.995Z,5.10
2023-02-06T02:43:55.226Z,5.20
2023-02-06T02:46:27.395Z,5.50
2023-02-06T02:48:57.950Z,5.70
2023-02-06T02:51:27.472Z,5.80
2023-02-06T02:53:58.031Z,5.80
2023-02-06T02:56:27.494Z,5.80
2023-02-06T02:59:00.280Z,5.40
2023-02-06T03:01:33.876Z,5.30
2023-02-06T03:04:06.492Z,5.20
2023-02-06T03:07:00.446Z,5.30
2023-02-06T03:09:40.466Z,5.20
2023-02-06T03:12:13.720Z,5.30
2023-02-06T03:14:47.057Z,5.30
2023-02-06T03:17:19.227Z,5.30
2023-02-06T03:19:53.288Z,5.20
2023-02-06T03:22:22.724Z,5.00
2023-02-06T03:24:52.312Z,5.10
2023-02-06T03:27:22.663Z,5.10
2023-02-06T03:29:52.951Z,5.20
2023-02-06T03:32:24.206Z,5.30
2023-02-06T03:34:58.895Z,5.30
2023-02-06T03:37:28.747Z,5.20
2023-02-06T03:39:59.114Z,5.30
2023-02-06T03:42:27.387Z,5.30
2023-02-06T03:45:01.589Z,5.40
2023-02-06T03:47:31.070Z,5.40
2023-02-06T03:50:01.588Z,5.30
2023-02-06T03:52:36.934Z,5.20
2023-02-06T03:55:08.336Z,5.30
2023-02-06T03:57:38.854Z,5.30
2023-02-06T04:00:07.648Z,5.20
2023-02-06T04:02:36.248Z,5.20
2023-02-06T04:05:04.168Z,5.00
2023-02-06T04:07:36.065Z,5.10
2023-02-06T04:10:03.888Z,5.10
2023-02-06T04:12:31.633Z,5.00
2023-02-06T04:14:59.366Z,5.10
2023-02-06T04:17:43.051Z,4.80
2023-02-06T04:20:14.511Z,4.80
2023-02-06T04:22:43.834Z,4.90
2023-02-06T04:25:12.222Z,4.90
2023-02-06T04:27:39.988Z,4.90
2023-02-06T04:30:09.034Z,4.90
2023-02-06T04:32:36.776Z,5.10
2023-02-06T04:35:04.858Z,5.20
2023-02-06T04:37:33.731Z,5.00
2023-02-06T04:40:02.741Z,4.80
2023-02-06T04:42:30.424Z,4.90
2023-02-06T04:44:58.178Z,4.90
2023-02-06T04:47:25.998Z,4.90
2023-02-06T04:49:53.713Z,4.80
2023-02-06T04:52:21.625Z,4.90
2023-02-06T04:54:49.359Z,4.70
2023-02-06T04:57:18.392Z,4.80
2023-02-06T04:59:46.095Z,4.80
2023-02-06T05:02:13.900Z,4.70
2023-02-06T05:04:41.738Z,4.70
2023-02-06T05:07:09.450Z,4.70
2023-02-06T05:09:37.208Z,4.70
2023-02-06T05:12:05.253Z,4.70
2023-02-06T05:14:34.568Z,4.80
2023-02-06T05:17:02.302Z,4.80
2023-02-06T05:19:30.146Z,4.80
2023-02-06T05:21:57.861Z,4.80
2023-02-06T05:24:25.900Z,4.70
2023-02-06T05:26:53.881Z,4.70
2023-02-06T05:29:21.568Z,4.70
2023-02-06T05:31:50.710Z,4.50
2023-02-06T05:34:18.553Z,4.50
2023-02-06T05:36:46.387Z,4.60
2023-02-06T05:39:14.239Z,4.60
2023-02-06T05:41:42.040Z,4.60
2023-02-06T05:44:10.950Z,4.60
2023-02-06T05:46:38.974Z,4.60
2023-02-06T05:49:08.116Z,4.60
2023-02-06T05:51:35.864Z,4.70
2023-02-06T05:54:03.874Z,4.60
2023-02-06T05:56:31.942Z,4.70
2023-02-06T05:59:00.179Z,4.70
2023-02-06T06:01:29.182Z,4.70
2023-02-06T06:03:56.935Z,4.80
2023-02-06T06:06:26.142Z,5.00
2023-02-06T06:08:54.003Z,5.00
2023-02-06T06:11:22.264Z,5.10
2023-02-06T06:13:50.175Z,4.90
2023-02-06T06:16:17.960Z,5.00
2023-02-06T06:18:45.680Z,5.00
2023-02-06T06:21:13.448Z,4.90
2023-02-06T06:23:42.539Z,4.80
2023-02-06T06:26:10.341Z,4.80
2023-02-06T06:28:38.766Z,4.80
2023-02-06T06:31:08.081Z,4.60
2023-02-06T06:33:35.964Z,4.60
2023-02-06T06:36:04.033Z,4.50
2023-02-06T06:38:31.825Z,4.50
2023-02-06T06:41:01.065Z,4.30
2023-02-06T06:43:28.942Z,4.30
2023-02-06T06:45:56.688Z,4.50
2023-02-06T06:48:24.578Z,4.50
2023-02-06T06:50:52.341Z,4.40
2023-02-06T06:53:20.222Z,4.40
2023-02-06T06:55:47.930Z,4.50
2023-02-06T06:58:17.170Z,4.70
2023-02-06T07:00:44.913Z,4.50
2023-02-06T07:03:12.724Z,4.50
2023-02-06T07:05:41.324Z,4.10
2023-02-06T07:08:09.149Z,4.10
2023-02-06T07:10:36.909Z,4.50
2023-02-06T07:13:04.869Z,4.70
2023-02-06T07:15:34.142Z,4.80
2023-02-06T07:18:02.013Z,4.80
2023-02-06T07:20:29.783Z,5.00
2023-02-06T07:22:57.514Z,5.00
2023-02-06T07:25:25.310Z,4.90
2023-02-06T07:27:53.051Z,5.00
2023-02-06T07:30:20.898Z,5.00
2023-02-06T07:32:49.998Z,5.00
2023-02-06T07:35:17.844Z,4.80
2023-02-06T07:37:45.703Z,4.80
2023-02-06T07:40:14.130Z,4.60
2023-02-06T07:42:41.859Z,4.60
2023-02-06T07:45:10.446Z,4.70
2023-02-06T07:47:38.145Z,4.50
2023-02-06T07:50:08.010Z,4.60
2023-02-06T07:52:35.712Z,4.70
2023-02-06T07:55:03.464Z,4.60
2023-02-06T07:57:31.665Z,4.60
2023-02-06T07:59:59.532Z,4.60
2023-02-06T08:02:27.222Z,4.60
2023-02-06T08:04:54.920Z,4.60
2023-02-06T08:07:23.961Z,4.60
2023-02-06T08:09:51.716Z,4.50
2023-02-06T08:12:19.435Z,4.60
2023-02-06T08:14:47.226Z,4.60
2023-02-06T08:17:14.960Z,4.60
2023-02-06T08:19:42.675Z,4.70
2023-02-06T08:22:10.388Z,4.60
2023-02-06T08:24:39.449Z,4.60
2023-02-06T08:27:07.734Z,4.30
2023-02-06T08:29:40.293Z,4.20
2023-02-06T08:32:08.006Z,4.30
2023-02-06T08:34:36.342Z,4.50
2023-02-06T08:37:04.027Z,4.40
2023-02-06T08:39:31.914Z,4.30
2023-02-06T08:42:01.774Z,4.40
2023-02-06T08:44:29.565Z,4.60
2023-02-06T08:47:09.144Z,4.60
2023-02-06T08:49:37.327Z,4.50
2023-02-06T08:52:05.688Z,4.40
2023-02-06T08:54:35.580Z,4.50
2023-02-06T08:57:06.691Z,4.60
2023-02-06T08:59:34.821Z,4.50
2023-02-06T09:02:02.675Z,4.70
2023-02-06T09:04:31.470Z,4.80
2023-02-06T09:06:59.212Z,4.70
2023-02-06T09:09:26.901Z,4.80
2023-02-06T09:11:55.408Z,4.70
2023-02-06T09:14:24.622Z,4.70
2023-02-06T09:16:52.388Z,4.80
2023-02-06T09:19:20.168Z,4.80
2023-02-06T09:21:47.914Z,5.20
2023-02-06T09:24:15.633Z,5.20
2023-02-06T09:26:58.621Z,5.30
2023-02-06T09:29:29.711Z,5.40
2023-02-06T09:31:58.014Z,5.30
2023-02-06T09:34:26.887Z,5.20
2023-02-06T09:36:56.652Z,5.40
2023-02-06T09:39:24.727Z,5.30
2023-02-06T09:41:54.259Z,5.10
2023-02-06T09:44:29.033Z,5.10
2023-02-06T09:47:02.694Z,5.10
2023-02-06T09:49:36.878Z,5.10
2023-02-06T09:52:30.766Z,5.10
2023-02-06T09:55:07.438Z,5.10
2023-02-06T09:57:42.528Z,5.00
2023-02-06T10:00:26.332Z,4.80
2023-02-06T10:03:12.350Z,5.00
2023-02-06T10:05:48.161Z,4.90
2023-02-06T10:08:21.859Z,4.80
2023-02-06T10:10:52.845Z,4.90
2023-02-06T10:13:24.609Z,4.90
2023-02-06T10:15:56.909Z,4.90
2023-02-06T10:18:32.975Z,4.80
2023-02-06T10:21:05.972Z,4.80
2023-02-06T10:23:38.436Z,4.80
2023-02-06T10:26:12.441Z,4.60
2023-02-06T10:28:41.447Z,4.70
2023-02-06T10:31:39.213Z,4.80
2023-02-06T10:34:26.942Z,4.90
2023-02-06T10:37:07.901Z,5.10
2023-02-06T10:39:51.607Z,5.00
2023-02-06T10:42:24.560Z,4.80
2023-02-06T10:45:06.598Z,4.90
2023-02-06T10:47:46.308Z,5.00
2023-02-06T10:50:23.892Z,5.00
2023-02-06T10:52:52.113Z,5.00
2023-02-06T10:55:23.611Z,5.10
2023-02-06T10:58:06.309Z,4.90
2023-02-06T11:00:35.019Z,4.70
2023-02-06T11:03:08.169Z,4.80
2023-02-06T11:05:38.262Z,5.10
2023-02-06T11:08:14.268Z,5.30
2023-02-06T11:10:42.031Z,5.10
2023-02-06T11:13:15.136Z,4.90
2023-02-06T11:15:51.679Z,4.70
2023-02-06T11:18:22.660Z,4.90
2023-02-06T11:20:53.735Z,4.90
2023-02-06T11:23:25.131Z,5.10
2023-02-06T11:26:04.235Z,5.00
2023-02-06T11:28:34.244Z,4.80
2023-02-06T11:31:04.094Z,4.90
2023-02-06T11:33:39.749Z,5.00
2023-02-06T11:36:23.660Z,4.90
2023-02-06T11:39:00.180Z,4.80
2023-02-06T11:41:28.968Z,4.80
2023-02-06T11:44:06.247Z,4.80
2023-02-06T11:46:36.103Z,4.80
2023-02-06T11:49:08.944Z,4.80
2023-02-06T11:51:52.539Z,4.80
2023-02-06T11:54:22.610Z,5.10
2023-02-06T11:56:59.137Z,4.90
2023-02-06T11:59:27.457Z,4.80
2023-02-06T12:01:55.467Z,4.70
2023-02-06T12:04:26.792Z,4.60
2023-02-06T12:07:01.932Z,4.40
2023-02-06T12:09:30.231Z,4.60
2023-02-06T12:12:01.893Z,4.80
2023-02-06T12:14:36.834Z,4.90
2023-02-06T12:17:10.651Z,4.80
2023-02-06T12:19:48.136Z,4.80
2023-02-06T12:22:22.662Z,4.80
2023-02-06T12:24:52.383Z,4.80
2023-02-06T12:27:25.938Z,4.80
2023-02-06T12:29:59.557Z,4.90
2023-02-06T12:32:32.742Z,4.70
2023-02-06T12:35:05.219Z,4.60
2023-02-06T12:37:40.104Z,4.60
2023-02-06T12:40:16.854Z,4.60
2023-02-06T12:42:48.791Z,4.70
2023-02-06T12:45:27.402Z,4.80
2023-02-06T12:48:00.772Z,5.00
2023-02-06T12:50:31.519Z,5.10
2023-02-06T12:53:05.541Z,5.10
2023-02-06T12:55:37.937Z,5.00
2023-02-06T12:58:06.275Z,4.80
2023-02-06T13:00:47.196Z,4.60
2023-02-06T13:03:24.614Z,4.80
2023-02-06T13:05:55.455Z,5.10
2023-02-06T13:08:31.438Z,5.10
2023-02-06T13:11:04.751Z,4.90
2023-02-06T13:13:36.496Z,4.90
2023-02-06T13:16:06.316Z,5.00
2023-02-06T13:19:04.690Z,5.10
2023-02-06T13:21:33.921Z,5.10
2023-02-06T13:24:17.749Z,5.00
2023-02-06T13:27:14.433Z,5.30
2023-02-06T13:29:43.972Z,5.30
2023-02-06T13:32:45.194Z,5.30
2023-02-06T13:35:31.197Z,5.10
2023-02-06T13:38:36.519Z,5.20
2023-02-06T13:41:31.932Z,5.30
2023-02-06T13:44:05.222Z,5.30
2023-02-06T13:46:47.582Z,5.40
2023-02-06T13:49:41.871Z,5.40
2023-02-06T13:52:19.394Z,5.20
2023-02-06T13:55:16.650Z,5.30
2023-02-06T13:58:19.209Z,5.10
2023-02-06T14:00:50.348Z,5.20
2023-02-06T14:03:24.507Z,5.00
2023-02-06T14:05:58.872Z,4.70
2023-02-06T14:08:39.846Z,4.80
2023-02-06T14:11:20.453Z,5.00
2023-02-06T14:14:17.536Z,5.10
2023-02-06T14:16:52.647Z,5.10
2023-02-06T14:19:31.889Z,5.40
2023-02-06T14:22:09.459Z,5.50
2023-02-06T14:25:04.553Z,5.40
2023-02-06T14:27:50.516Z,5.20
2023-02-06T14:30:33.991Z,5.10
2023-02-06T14:33:17.420Z,5.30
2023-02-06T14:35:58.395Z,5.20
2023-02-06T14:39:10.638Z,5.40
2023-02-06T14:41:39.598Z,5.50
2023-02-06T14:44:16.097Z,5.50
2023-02-06T14:46:45.712Z,5.60
2023-02-06T14:49:18.689Z,5.30
2023-02-06T14:51:54.645Z,5.20
2023-02-06T14:54:35.912Z,5.30
2023-02-06T14:57:16.554Z,5.40
2023-02-06T14:59:52.017Z,5.40
2023-02-06T15:02:28.124Z,5.70
2023-02-06T15:05:01.729Z,5.80
2023-02-06T15:07:33.009Z,5.80
2023-02-06T15:10:07.724Z,5.70
2023-02-06T15:12:36.992Z,5.50
2023-02-06T15:15:18.794Z,5.50
2023-02-06T15:17:59.146Z,5.60
2023-02-06T15:20:32.294Z,5.60
2023-02-06T15:23:17.847Z,5.60
2023-02-06T15:26:01.603Z,5.70
2023-02-06T15:28:31.557Z,5.80
2023-02-06T15:31:03.710Z,5.70
2023-02-06T15:33:36.063Z,5.70
2023-02-06T15:36:07.828Z,5.80
2023-02-06T15:38:39.956Z,5.80
2023-02-06T15:41:09.379Z,5.80
2023-02-06T15:43:37.469Z,5.70
2023-02-06T15:46:11.297Z,5.80
2023-02-06T15:48:50.361Z,6.00
2023-02-06T15:51:23.864Z,5.90
2023-02-06T15:53:53.421Z,6.00
2023-02-06T15:56:28.792Z,6.00
2023-02-06T16:02:01.170Z,6.00
2023-02-06T16:04:34.464Z,6.10
2023-02-06T16:07:13.180Z,6.00
2023-02-06T16:09:43.458Z,5.80
2023-02-06T16:12:12.378Z,5.80
2023-02-06T16:14:41.994Z,5.90
2023-02-06T16:17:31.528Z,5.80
2023-02-06T16:20:03.162Z,5.40
2023-02-06T16:22:32.622Z,5.40
2023-02-06T16:25:21.699Z,5.50
2023-02-06T16:27:57.535Z,5.40
2023-02-06T16:30:31.710Z,5.50
2023-02-06T16:33:01.940Z,5.40
2023-02-06T16:35:33.424Z,5.40
2023-02-06T16:38:01.336Z,5.40
2023-02-06T16:40:30.066Z,5.40
2023-02-06T16:43:00.020Z,5.40
2023-02-06T16:45:29.089Z,5.40
2023-02-06T16:47:57.944Z,5.40
2023-02-06T16:50:25.774Z,5.50
2023-02-06T16:53:01.856Z,5.60
2023-02-06T16:55:39.684Z,5.50
2023-02-06T16:58:07.570Z,5.50
2023-02-06T17:00:35.686Z,5.70
2023-02-06T17:03:03.529Z,5.80
2023-02-06T17:05:35.545Z,5.80
2023-02-06T17:08:15.526Z,6.00
2023-02-06T17:10:43.562Z,6.00
2023-02-06T17:13:15.398Z,5.90
2023-02-06T17:15:43.976Z,5.90
2023-02-06T17:18:14.167Z,5.90
2023-02-06T17:20:43.776Z,5.80
2023-02-06T17:23:14.232Z,5.90
2023-02-06T17:25:45.431Z,5.80
2023-02-06T17:28:15.777Z,5.80
2023-02-06T17:30:43.711Z,5.70
2023-02-06T17:33:11.815Z,5.70
2023-02-06T17:35:45.572Z,5.70
2023-02-06T17:38:20.582Z,5.60
2023-02-06T17:40:48.573Z,5.50
2023-02-06T17:43:16.588Z,5.50
2023-02-06T17:45:44.413Z,5.50
2023-02-06T17:48:12.287Z,5.60
2023-02-06T17:50:43.722Z,5.50
2023-02-06T17:53:15.351Z,5.50
2023-02-06T17:55:47.244Z,5.60
2023-02-06T17:58:19.282Z,5.70
2023-02-06T18:00:49.207Z,5.80
2023-02-06T18:03:18.247Z,5.90
2023-02-06T18:05:47.140Z,5.90
2023-02-06T18:08:21.049Z,5.90
2023-02-06T18:10:48.990Z,5.90
2023-02-06T18:13:17.077Z,6.00
2023-02-06T18:15:49.961Z,6.10
2023-02-06T18:18:18.064Z,6.10
2023-02-06T18:20:46.081Z,6.10
2023-02-06T18:23:16.217Z,6.20
2023-02-06T18:25:45.501Z,6.20
2023-02-06T18:28:14.740Z,6.10
2023-02-06T18:30:47.297Z,6.10
2023-02-06T18:33:15.187Z,6.00
2023-02-06T18:35:48.767Z,6.00
2023-02-06T18:38:19.182Z,6.10
2023-02-06T18:40:50.988Z,6.10
2023-02-06T18:43:17.816Z,6.10
2023-02-06T18:45:48.168Z,6.10
2023-02-06T18:48:16.122Z,6.10
2023-02-06T18:50:43.934Z,6.10
2023-02-06T18:53:12.380Z,6.00
2023-02-06T18:55:40.426Z,6.00
2023-02-06T18:58:09.934Z,5.90
2023-02-06T19:00:40.750Z,6.00
2023-02-06T19:03:10.397Z,6.00
2023-02-06T19:05:42.046Z,6.00
2023-02-06T19:08:10.218Z,6.00
2023-02-06T19:10:38.484Z,5.90
2023-02-06T19:13:13.381Z,5.90
2023-02-06T19:15:41.383Z,5.80
2023-02-06T19:18:13.163Z,5.70
2023-02-06T19:20:43.996Z,5.50
2023-02-06T19:23:11.841Z,5.40
2023-02-06T19:25:41.743Z,5.30
2023-02-06T19:28:13.750Z,5.30
2023-02-06T19:30:53.153Z,5.30
2023-02-06T19:33:20.856Z,5.40
2023-02-06T19:35:48.894Z,5.50
2023-02-06T19:38:16.618Z,5.50
2023-02-06T19:40:53.141Z,5.40
2023-02-06T19:43:22.462Z,5.40
2023-02-06T19:45:50.533Z,5.30
2023-02-06T19:48:18.398Z,5.30
2023-02-06T19:50:51.241Z,5.40
2023-02-06T19:53:34.272Z,5.50
2023-02-06T19:56:09.320Z,5.40
2023-02-06T19:58:47.179Z,5.30
2023-02-06T20:01:18.090Z,5.30
2023-02-06T20:03:46.630Z,5.30
2023-02-06T20:06:38.063Z,5.30
2023-02-06T20:09:09.732Z,5.20
2023-02-06T20:11:45.300Z,5.20
2023-02-06T20:14:18.250Z,5.10
2023-02-06T20:16:49.852Z,5.00
2023-02-06T20:19:29.004Z,5.00
2023-02-06T20:22:01.586Z,5.10
2023-02-06T20:24:36.046Z,5.20
2023-02-06T20:27:13.640Z,5.10
2023-02-06T20:29:45.953Z,5.00
2023-02-06T20:32:19.815Z,5.00
2023-02-06T20:34:49.336Z,4.80
2023-02-06T20:37:22.097Z,4.70
2023-02-06T20:39:50.501Z,4.80
2023-02-06T20:42:19.394Z,4.70
2023-02-06T20:44:50.228Z,4.80
2023-02-06T20:47:18.174Z,4.70
2023-02-06T20:49:48.567Z,4.80
2023-02-06T20:52:22.238Z,4.80
2023-02-06T20:54:50.205Z,4.70
2023-02-06T20:57:17.968Z,4.70
2023-02-06T20:59:49.853Z,4.70
2023-02-06T21:02:22.527Z,4.80
2023-02-06T21:04:52.288Z,4.70
2023-02-06T21:07:23.557Z,4.50
2023-02-06T21:09:51.759Z,4.80
2023-02-06T21:12:19.497Z,4.70
2023-02-06T21:14:47.521Z,4.80
2023-02-06T21:17:15.389Z,4.90
2023-02-06T21:19:44.499Z,5.00
2023-02-06T21:22:12.295Z,5.00
2023-02-06T21:24:40.250Z,5.00
2023-02-06T21:27:08.194Z,5.00
2023-02-06T21:29:35.949Z,4.90
2023-02-06T21:32:13.606Z,4.70
2023-02-06T21:34:44.460Z,4.60
2023-02-06T21:37:12.429Z,4.70
2023-02-06T21:39:41.065Z,4.80
2023-02-06T21:42:09.345Z,4.90
2023-02-06T21:44:37.873Z,4.90
2023-02-06T21:47:06.216Z,4.80
2023-02-06T21:49:34.049Z,4.70
2023-02-06T21:52:07.412Z,4.60
2023-02-06T21:54:35.127Z,4.50
2023-02-06T21:57:05.006Z,4.60
2023-02-06T21:59:36.260Z,4.50
2023-02-06T22:02:05.924Z,4.40
2023-02-06T22:04:33.873Z,4.40
2023-02-06T22:07:11.652Z,4.30
2023-02-06T22:09:42.011Z,4.20
2023-02-06T22:12:10.097Z,3.90
2023-02-06T22:14:43.822Z,3.90
2023-02-06T22:17:11.856Z,3.80
2023-02-06T22:19:39.854Z,3.70
2023-02-06T22:22:18.349Z,3.70
2023-02-06T22:24:53.026Z,3.50
2023-02-06T22:27:21.049Z,3.40
2023-02-06T22:29:48.978Z,3.30
2023-02-06T22:32:16.827Z,3.30
2023-02-06T22:34:46.676Z,3.20
2023-02-06T22:37:22.188Z,3.10
2023-02-06T22:39:50.089Z,3.10
2023-02-06T22:42:20.372Z,3.20
2023-02-06T22:44:48.693Z,3.50
2023-02-06T22:47:16.655Z,3.50
2023-02-06T22:49:46.986Z,3.80
2023-02-06T22:52:28.835Z,3.70
2023-02-06T22:55:03.011Z,3.60
2023-02-06T22:57:33.338Z,3.50
2023-02-06T23:00:03.203Z,3.50
2023-02-06T23:02:30.916Z,3.40
2023-02-06T23:04:58.745Z,3.50
2023-02-06T23:07:26.723Z,3.60
2023-02-06T23:09:55.715Z,3.60
2023-02-06T23:12:24.968Z,3.60
2023-02-06T23:14:52.786Z,3.70
2023-02-06T23:17:30.965Z,3.80
2023-02-06T23:20:01.769Z,3.80
2023-02-06T23:22:29.659Z,3.80
2023-02-06T23:24:57.851Z,3.80
2023-02-06T23:27:30.266Z,3.80
2023-02-06T23:29:58.124Z,3.80
2023-02-06T23:32:26.101Z,3.60
2023-02-06T23:34:56.848Z,3.80
2023-02-06T23:37:24.564Z,3.80
2023-02-06T23:39:52.452Z,3.90
2023-02-06T23:42:20.570Z,3.70
2023-02-06T23:44:49.972Z,3.90
2023-02-06T23:47:17.795Z,3.90
2023-02-06T23:49:45.681Z,3.80
2023-02-06T23:52:18.641Z,3.70
2023-02-06T23:54:46.435Z,3.80
2023-02-06T23:57:17.407Z,3.80
2023-02-06T23:59:47.725Z,3.70
